createdAt,value
2018-05-27T00:02:01.587Z,31.50
2018-05-27T00:21:43.136Z,30.30
2018-05-27T00:41:25.442Z,25.93
2018-05-27T01:01:07.638Z,31.63
2018-05-27T01:20:49.698Z,30.77
2018-05-27T01:40:32.013Z,36.67
2018-05-27T02:00:15.093Z,39.95
2018-05-27T02:19:57.023Z,50.97
2018-05-27T02:39:39.045Z,39.50
2018-05-27T02:59:21.224Z,55.03
2018-05-27T03:19:03.368Z,57.20
2018-05-27T03:38:45.553Z,58.40
2018-05-27T03:58:28.074Z,60.50
2018-05-27T04:18:11.089Z,50.70
2018-05-27T04:37:53.524Z,55.60
2018-05-27T04:57:35.902Z,52.77
2018-05-27T05:17:19.942Z,46.17
2018-05-27T05:37:02.289Z,42.90
2018-05-27T05:56:45.013Z,29.77
2018-05-27T06:16:27.917Z,26.33
2018-05-27T06:36:10.937Z,22.97
2018-05-27T06:55:53.341Z,18.83
2018-05-27T07:15:36.029Z,15.77
2018-05-27T07:35:18.825Z,15.90
2018-05-27T07:55:01.914Z,15.40
2018-05-27T08:14:44.237Z,12.63
2018-05-27T08:34:28.609Z,12.83
2018-05-27T08:54:11.774Z,10.50
2018-05-27T09:13:54.013Z,9.60
2018-05-27T09:33:36.971Z,10.13
2018-05-27T09:53:19.965Z,9.07
2018-05-27T10:13:02.513Z,9.53
2018-05-27T10:32:44.626Z,7.33
2018-05-27T10:52:27.537Z,6.83
2018-05-27T11:12:10.196Z,6.00
2018-05-27T11:31:52.436Z,7.05
2018-05-27T11:51:35.004Z,5.07
2018-05-27T12:11:18.033Z,4.78
2018-05-27T12:31:01.374Z,4.30
2018-05-27T12:50:50.897Z,4.43
2018-05-27T13:10:33.682Z,3.75
2018-05-27T13:30:15.868Z,5.83
2018-05-27T13:49:58.885Z,5.03
2018-05-27T14:09:41.115Z,5.62
2018-05-27T14:29:25.315Z,6.55
2018-05-27T14:31:53.210Z,7.03
2018-05-27T14:34:21.604Z,5.95
2018-05-27T14:36:50.585Z,5.65
2018-05-27T14:39:18.738Z,6.60
2018-05-27T14:41:46.737Z,5.50
2018-05-27T14:44:15.890Z,6.37
2018-05-27T14:46:46.046Z,6.30
2018-05-27T14:49:13.981Z,6.72
2018-05-27T14:51:42.022Z,7.32
2018-05-27T14:54:09.988Z,7.40
2018-05-27T14:56:37.862Z,7.37
2018-05-27T14:59:05.829Z,7.60
2018-05-27T15:01:33.709Z,8.48
2018-05-27T15:04:02.620Z,8.90
2018-05-27T15:06:30.366Z,8.75
2018-05-27T15:08:58.234Z,10.85
2018-05-27T15:11:26.213Z,9.43
2018-05-27T15:13:54.079Z,9.57
2018-05-27T15:16:22.376Z,11.52
2018-05-27T15:18:50.968Z,11.05
2018-05-27T15:21:19.265Z,9.40
2018-05-27T15:23:46.991Z,8.38
2018-05-27T15:26:14.770Z,8.07
2018-05-27T15:28:42.632Z,8.38
2018-05-27T15:31:10.502Z,8.43
2018-05-27T15:33:38.380Z,8.27
2018-05-27T15:36:06.247Z,7.32
2018-05-27T15:38:33.984Z,7.30
2018-05-27T15:41:01.799Z,7.47
2018-05-27T15:43:29.672Z,7.00
2018-05-27T15:45:57.403Z,8.30
2018-05-27T15:48:25.353Z,6.62
2018-05-27T15:50:53.130Z,6.68
2018-05-27T15:53:20.839Z,7.22
2018-05-27T15:55:48.591Z,6.62
2018-05-27T15:58:16.471Z,6.53
2018-05-27T16:00:44.860Z,6.43
2018-05-27T16:03:12.625Z,7.50
2018-05-27T16:05:40.498Z,6.25
2018-05-27T16:08:08.360Z,5.97
2018-05-27T16:10:36.527Z,6.50
2018-05-27T16:13:04.635Z,6.95
2018-05-27T16:15:32.523Z,6.10
2018-05-27T16:18:00.268Z,5.78
2018-05-27T16:20:28.638Z,6.25
2018-05-27T16:22:56.441Z,6.35
2018-05-27T16:25:24.703Z,6.10
2018-05-27T16:27:52.469Z,6.10
2018-05-27T16:30:20.335Z,5.67
2018-05-27T16:32:48.210Z,5.40
2018-05-27T16:35:15.959Z,5.70
2018-05-27T16:37:43.846Z,5.37
2018-05-27T16:40:11.617Z,5.97
2018-05-27T16:42:39.490Z,4.95
2018-05-27T16:45:07.446Z,5.47
2018-05-27T16:47:35.126Z,5.65
2018-05-27T16:50:02.900Z,7.20
2018-05-27T16:52:30.612Z,5.53
2018-05-27T16:54:58.432Z,6.20
2018-05-27T16:57:32.633Z,5.90
2018-05-27T17:00:00.311Z,6.40
2018-05-27T17:02:28.090Z,6.10
2018-05-27T17:04:55.957Z,6.40
2018-05-27T17:07:23.841Z,6.10
2018-05-27T17:09:51.698Z,6.35
2018-05-27T17:12:19.580Z,6.32
2018-05-27T17:14:47.304Z,6.60
2018-05-27T17:17:15.108Z,6.28
2018-05-27T17:19:42.982Z,8.77
2018-05-27T17:22:10.863Z,6.30
2018-05-27T17:24:38.692Z,5.90
2018-05-27T17:27:06.591Z,6.25
2018-05-27T17:29:34.331Z,6.97
2018-05-27T17:32:02.235Z,6.40
2018-05-27T17:34:30.105Z,6.22
2018-05-27T17:36:57.874Z,6.85
2018-05-27T17:39:25.745Z,6.50
2018-05-27T17:41:53.622Z,6.50
2018-05-27T17:44:21.496Z,7.45
2018-05-27T17:46:49.980Z,6.35
2018-05-27T17:49:17.748Z,7.03
2018-05-27T17:51:45.610Z,7.57
2018-05-27T17:54:13.484Z,7.87
2018-05-27T17:56:41.351Z,8.00
2018-05-27T17:59:09.127Z,8.20
2018-05-27T18:01:37.507Z,8.43
2018-05-27T18:04:05.426Z,8.60
2018-05-27T18:06:33.455Z,8.43
2018-05-27T18:09:01.327Z,9.27
2018-05-27T18:11:29.099Z,8.73
2018-05-27T18:13:56.968Z,9.63
2018-05-27T18:16:24.732Z,9.87
2018-05-27T18:18:52.421Z,9.67
2018-05-27T18:21:20.270Z,13.07
2018-05-27T18:23:48.059Z,10.37
2018-05-27T18:26:15.913Z,9.97
2018-05-27T18:28:43.786Z,10.00
2018-05-27T18:31:11.562Z,11.50
2018-05-27T18:33:39.427Z,11.07
2018-05-27T18:36:07.208Z,11.13
2018-05-27T18:38:35.042Z,11.53
2018-05-27T18:41:02.776Z,15.37
2018-05-27T18:43:30.511Z,12.37
2018-05-27T18:45:58.270Z,11.93
2018-05-27T18:48:26.004Z,11.47
2018-05-27T18:50:53.909Z,11.50
2018-05-27T18:53:21.784Z,12.03
2018-05-27T18:55:49.535Z,11.60
2018-05-27T18:58:17.343Z,11.53
2018-05-27T19:00:45.094Z,15.63
2018-05-27T19:03:12.957Z,11.97
2018-05-27T19:05:40.907Z,13.43
2018-05-27T19:08:08.698Z,13.00
2018-05-27T19:10:36.540Z,13.13
2018-05-27T19:13:04.359Z,13.47
2018-05-27T19:15:32.126Z,14.20
2018-05-27T19:17:59.990Z,14.60
2018-05-27T19:20:27.943Z,15.13
2018-05-27T19:22:56.319Z,14.23
2018-05-27T19:25:24.216Z,18.60
2018-05-27T19:27:51.954Z,16.50
2018-05-27T19:30:19.869Z,15.60
2018-05-27T19:32:47.622Z,15.13
2018-05-27T19:35:15.394Z,16.37
2018-05-27T19:37:43.259Z,15.93
2018-05-27T19:40:11.159Z,16.93
2018-05-27T19:42:39.012Z,17.23
2018-05-27T19:45:06.879Z,16.40
2018-05-27T19:47:34.743Z,17.07
2018-05-27T19:50:02.611Z,16.83
2018-05-27T19:52:30.285Z,16.40
2018-05-27T19:54:58.198Z,18.43
2018-05-27T19:57:25.971Z,18.20
2018-05-27T19:59:53.870Z,16.90
2018-05-27T20:02:21.667Z,17.67
2018-05-27T20:04:49.540Z,17.47
2018-05-27T20:07:18.132Z,18.97
2018-05-27T20:09:45.994Z,18.83
2018-05-27T20:12:13.970Z,18.53
2018-05-27T20:14:41.766Z,18.27
2018-05-27T20:17:09.521Z,19.40
2018-05-27T20:19:37.374Z,18.00
2018-05-27T20:22:05.151Z,18.97
2018-05-27T20:24:32.917Z,20.17
2018-05-27T20:27:00.691Z,18.90
2018-05-27T20:29:28.558Z,19.33
2018-05-27T20:31:56.425Z,19.00
2018-05-27T20:34:24.295Z,19.10
2018-05-27T20:36:52.171Z,18.97
2018-05-27T20:39:20.069Z,19.70
2018-05-27T20:41:47.798Z,19.23
2018-05-27T20:44:15.605Z,18.80
2018-05-27T20:46:43.416Z,19.30
2018-05-27T20:49:11.238Z,18.70
2018-05-27T20:51:39.096Z,18.83
2018-05-27T20:54:06.861Z,19.67
2018-05-27T20:56:34.744Z,18.77
2018-05-27T20:59:02.507Z,19.80
2018-05-27T21:01:30.369Z,21.23
2018-05-27T21:03:58.276Z,19.80
2018-05-27T21:06:26.131Z,19.60
2018-05-27T21:08:53.884Z,19.67
2018-05-27T21:11:21.655Z,20.27
2018-05-27T21:13:49.426Z,22.13
2018-05-27T21:16:17.260Z,20.07
2018-05-27T21:18:45.165Z,22.17
2018-05-27T21:21:13.026Z,21.03
2018-05-27T21:23:40.902Z,21.97
2018-05-27T21:26:08.890Z,21.07
2018-05-27T21:28:36.772Z,20.53
2018-05-27T21:31:04.627Z,20.67
2018-05-27T21:33:32.405Z,19.53
2018-05-27T21:36:00.139Z,22.87
2018-05-27T21:38:27.931Z,19.53
2018-05-27T21:40:55.711Z,19.80
2018-05-27T21:43:23.574Z,19.20
2018-05-27T21:45:51.440Z,18.97
2018-05-27T21:48:19.320Z,20.17
2018-05-27T21:50:47.194Z,20.47
2018-05-27T21:53:15.074Z,20.33
2018-05-27T21:55:42.925Z,18.83
2018-05-27T21:58:10.793Z,19.73
2018-05-27T22:00:38.665Z,19.07
2018-05-27T22:03:06.574Z,21.37
2018-05-27T22:05:34.408Z,20.40
2018-05-27T22:08:02.291Z,17.80
2018-05-27T22:10:30.162Z,18.53
2018-05-27T22:12:57.921Z,16.87
2018-05-27T22:15:25.792Z,19.00
2018-05-27T22:17:53.576Z,17.70
2018-05-27T22:20:21.436Z,17.77
2018-05-27T22:22:49.310Z,16.23
2018-05-27T22:25:17.194Z,18.37
2018-05-27T22:27:45.069Z,18.00
2018-05-27T22:30:12.931Z,19.20
2018-05-27T22:32:40.797Z,19.00
2018-05-27T22:35:08.663Z,18.00
2018-05-27T22:37:37.042Z,19.67
2018-05-27T22:40:05.219Z,16.07
2018-05-27T22:42:32.853Z,16.10
2018-05-27T22:45:00.591Z,15.90
2018-05-27T22:47:28.392Z,18.03
2018-05-27T22:49:56.097Z,15.47
2018-05-27T22:52:23.949Z,15.23
2018-05-27T22:54:52.008Z,16.67
2018-05-27T22:57:19.805Z,15.60
2018-05-27T22:59:47.679Z,15.83
2018-05-27T23:02:15.500Z,14.87
2018-05-27T23:04:43.224Z,15.13
2018-05-27T23:07:10.878Z,15.43
2018-05-27T23:09:38.768Z,16.10
2018-05-27T23:12:06.532Z,14.17
2018-05-27T23:34:42.681Z,13.77
2018-05-27T23:54:27.272Z,14.33
